Time;durP1;ratioP1;P1;durP2;ratioP2;P2;SDS_P1;SDS_P2;PMS_P1;PMS_P2;Temp;Humidity;BMP_temperature;BMP_pressure;BME280_temperature;BME280_humidity;BME280_pressure;Samples;Min_cycle;Max_cycle;Signal;HPM_P1;HPM_P2
2022/04/10 00:00:50;;;;;;;;;;;;;;;18.22;64.53;98382.56;2088142;28;20366;-54
2022/04/10 00:01:51;;;;;;;;;;;;;;;18.23;64.21;98376.16;2086604;28;19924;-48
2022/04/10 00:02:52;;;;;;;;;;;;;;;18.22;64.15;98374.50;2090401;28;19927;-45
2022/04/10 00:03:53;;;;;;;;;;;;;;;18.21;64.28;98368.31;2090327;28;19928;-48
2022/04/10 00:04:54;;;;;;;;;;;;;;;18.21;64.07;98367.50;2088822;28;20007;-50
2022/04/10 00:05:55;;;;;;;;;;;;;;;18.19;63.92;98367.72;2085782;28;19946;-49
2022/04/10 00:06:56;;;;;;;;;;;;;;;18.18;64.15;98371.41;2081794;28;19924;-51
2022/04/10 00:07:57;;;;;;;;;;;;;;;18.17;64.16;98366.25;2082853;28;19931;-51
2022/04/10 00:08:58;;;;;;;;;;;;;;;18.17;64.10;98368.94;2085072;28;20270;-49
2022/04/10 00:09:59;;;;;;;;;;;;;;;18.16;64.09;98361.91;2087073;28;19927;-48
2022/04/10 00:11:01;;;;;;;;;;;;;;;18.12;64.28;98366.88;2089212;28;20412;-49
2022/04/10 00:12:01;;;;;;;;;;;;;;;18.14;64.34;98355.94;2087794;28;19993;-49
2022/04/10 00:13:03;;;;;;;;;;;;;;;18.15;64.11;98362.97;2088672;28;19924;-51
2022/04/10 00:14:03;;;;;;;;;;;;;;;18.15;64.22;98360.28;2088724;28;19931;-48
2022/04/10 00:15:07;;;;;;;;;;;;;;;18.16;64.27;98364.59;2083781;28;20004;-49
2022/04/10 00:16:08;;;;;;;;;;;;;;;18.15;64.43;98358.41;2086655;28;19920;-52
2022/04/10 00:17:10;;;;;;;;;;;;;;;18.16;64.22;98367.28;2086183;28;19951;-48
2022/04/10 00:18:10;;;;;;;;;;;;;;;18.14;64.15;98358.63;2085992;28;19931;-49
2022/04/10 00:19:12;;;;;;;;;;;;;;;18.13;64.42;98365.00;2087194;28;19921;-53
2022/04/10 00:20:12;;;;;;;;;;;;;;;18.12;64.34;98360.69;2084180;28;20303;-47
2022/04/10 00:21:14;;;;;;;;;;;;;;;18.12;64.38;98363.38;2085701;28;19935;-48
2022/04/10 00:22:14;;;;;;;;;;;;;;;18.10;64.40;98363.56;2086767;28;19921;-49
2022/04/10 00:23:16;;;;;;;;;;;;;;;18.11;64.30;98364.38;2089421;28;20570;-50
2022/04/10 00:24:16;;;;;;;;;;;;;;;18.11;64.30;98364.38;2083808;28;19936;-48
2022/04/10 00:25:19;;;;;;;;;;;;;;;18.11;64.46;98364.38;2086074;28;19920;-49
2022/04/10 00:26:19;;;;;;;;;;;;;;;18.08;64.22;98362.97;2083633;28;19973;-51
2022/04/10 00:27:21;;;;;;;;;;;;;;;18.07;64.18;98367.47;2082612;28;19921;-51
2022/04/10 00:28:21;;;;;;;;;;;;;;;18.07;64.36;98359.44;2084369;28;20555;-49
2022/04/10 00:29:23;;;;;;;;;;;;;;;18.07;64.52;98361.28;2087910;28;19925;-49
2022/04/10 00:30:25;;;;;;;;;;;;;;;18.08;64.44;98353.06;2085223;28;19924;-51
2022/04/10 00:31:27;;;;;;;;;;;;;;;18.07;64.63;98356.75;2081462;28;19928;-51
2022/04/10 00:32:27;;;;;;;;;;;;;;;18.06;64.45;98360.47;2086606;28;19940;-49
2022/04/10 00:33:29;;;;;;;;;;;;;;;18.07;64.51;98359.44;2090925;28;19920;-51
2022/04/10 00:34:29;;;;;;;;;;;;;;;18.06;64.33;98348.91;2084813;28;20728;-50
2022/04/10 00:35:31;;;;;;;;;;;;;;;18.05;64.14;98347.25;2085931;28;19933;-48
2022/04/10 00:36:31;;;;;;;;;;;;;;;18.05;64.40;98352.63;2083144;28;19950;-49
2022/04/10 00:37:33;;;;;;;;;;;;;;;18.03;64.62;98358.22;2086733;28;19992;-51
2022/04/10 00:38:35;;;;;;;;;;;;;;;18.01;64.80;98346.84;2085928;28;19928;-49
2022/04/10 00:39:35;;;;;;;;;;;;;;;18.02;64.37;98356.53;2086368;28;19924;-50
2022/04/10 00:40:37;;;;;;;;;;;;;;;18.02;64.44;98356.53;2084589;28;19987;-50
2022/04/10 00:41:37;;;;;;;;;;;;;;;18.04;64.72;98364.41;2083661;28;19924;-49
2022/04/10 00:42:40;;;;;;;;;;;;;;;18.02;64.99;98361.91;2083632;28;19924;-49
2022/04/10 00:43:56;;;;;;;;;;;;;;;18.03;64.72;98362.75;2088201;28;19928;-51
2022/04/10 00:44:57;;;;;;;;;;;;;;;18.01;64.77;98362.94;2084160;28;20384;-48
2022/04/10 00:46:00;;;;;;;;;;;;;;;18.00;64.51;98364.00;2085912;28;19968;-51
2022/04/10 00:47:00;;;;;;;;;;;;;;;17.99;65.05;98358.81;2088504;28;19927;-51
2022/04/10 00:48:02;;;;;;;;;;;;;;;17.98;64.68;98363.38;2085813;28;19920;-50
2022/04/10 00:49:03;;;;;;;;;;;;;;;17.97;64.98;98366.25;2082490;28;20012;-48
2022/04/10 00:50:06;;;;;;;;;;;;;;;17.97;64.87;98369.78;2083922;28;19924;-49
2022/04/10 00:52:27;;;;;;;;;;;;;;;17.94;65.05;98367.50;2086211;28;20563;-49
2022/04/10 00:53:28;;;;;;;;;;;;;;;17.93;64.98;98367.69;2085352;28;19925;-50
2022/04/10 00:54:30;;;;;;;;;;;;;;;17.93;64.88;98373.06;2087942;28;19921;-49
2022/04/10 00:55:31;;;;;;;;;;;;;;;17.94;65.16;98375.56;2083526;28;19932;-50
2022/04/10 00:56:32;;;;;;;;;;;;;;;17.92;64.88;98376.78;2085839;28;19968;-47
2022/04/10 00:57:35;;;;;;;;;;;;;;;17.93;65.21;98373.88;2087688;28;19924;-49
2022/04/10 00:58:35;;;;;;;;;;;;;;;17.92;64.83;98374.94;2086321;28;20011;-50
2022/04/10 00:59:37;;;;;;;;;;;;;;;17.92;65.07;98371.41;2089794;28;19964;-52
2022/04/10 01:00:37;;;;;;;;;;;;;;;17.93;64.98;98378.44;2090368;28;19960;-49
2022/04/10 01:01:44;;;;;;;;;;;;;;;17.93;65.25;98375.75;2083050;28;20639;-50
2022/04/10 01:02:44;;;;;;;;;;;;;;;17.91;65.02;98375.94;2086330;28;19928;-49
2022/04/10 01:03:46;;;;;;;;;;;;;;;17.91;65.08;98375.13;2086886;28;20390;-49
2022/04/10 01:04:46;;;;;;;;;;;;;;;17.89;65.06;98375.34;2082812;28;19928;-50
2022/04/10 01:05:48;;;;;;;;;;;;;;;17.89;65.31;98378.03;2086004;28;19920;-48
2022/04/10 01:06:50;;;;;;;;;;;;;;;17.89;65.55;98375.34;2081971;28;19920;-51
2022/04/10 01:07:52;;;;;;;;;;;;;;;17.88;65.10;98368.31;2086513;28;19920;-49
2022/04/10 01:08:53;;;;;;;;;;;;;;;17.88;65.02;98376.34;2086215;28;19930;-51
2022/04/10 01:09:55;;;;;;;;;;;;;;;17.88;64.95;98372.84;2084331;28;19925;-47
2022/04/10 01:10:55;;;;;;;;;;;;;;;17.87;65.06;98377.41;2088367;28;19975;-49
2022/04/10 01:11:57;;;;;;;;;;;;;;;17.88;65.10;98379.03;2087196;28;19924;-48
2022/04/10 01:12:58;;;;;;;;;;;;;;;17.86;65.20;98378.44;2084709;28;20048;-49
2022/04/10 01:14:00;;;;;;;;;;;;;;;17.84;65.32;98381.31;2086374;28;19946;-49
2022/04/10 01:15:02;;;;;;;;;;;;;;;17.85;65.39;98382.13;2073209;28;20068;-50
2022/04/10 01:16:03;;;;;;;;;;;;;;;17.84;65.42;98380.50;2081425;28;19928;-49
2022/04/10 01:17:07;;;;;;;;;;;;;;;17.85;65.30;98382.13;2086611;28;20016;-51
2022/04/10 01:18:11;;;;;;;;;;;;;;;17.84;65.46;98380.50;2085159;28;19939;-48
2022/04/10 01:19:12;;;;;;;;;;;;;;;17.83;65.32;98385.03;2084970;28;20027;-51
2022/04/10 01:20:14;;;;;;;;;;;;;;;17.83;65.39;98392.25;2086326;28;19932;-50
2022/04/10 01:21:20;;;;;;;;;;;;;;;17.88;65.22;98389.75;2081689;28;22144;-52
2022/04/10 01:22:30;;;;;;;;;;;;;;;17.87;65.20;98398.84;2088380;28;19924;-50
2022/04/10 01:23:31;;;;;;;;;;;;;;;17.89;65.31;98396.81;2085595;28;19921;-49
2022/04/10 01:24:34;;;;;;;;;;;;;;;17.90;65.35;98403.81;2083530;28;19924;-49
2022/04/10 01:25:35;;;;;;;;;;;;;;;17.89;65.80;98407.53;2080168;28;20362;-48
2022/04/10 01:26:37;;;;;;;;;;;;;;;17.88;65.49;98411.22;2082486;28;19936;-51
2022/04/10 01:27:37;;;;;;;;;;;;;;;17.88;65.86;98410.41;2083764;28;19920;-49
2022/04/10 01:28:54;;;;;;;;;;;;;;;17.89;65.50;98412.91;2088426;28;20397;-49
2022/04/10 01:29:55;;;;;;;;;;;;;;;17.90;65.21;98414.53;2085995;28;20009;-50
2022/04/10 01:30:56;;;;;;;;;;;;;;;17.91;65.27;98416.19;2086727;28;19924;-50
2022/04/10 01:31:58;;;;;;;;;;;;;;;17.91;65.19;98423.41;2085836;28;19927;-49
2022/04/10 01:32:58;;;;;;;;;;;;;;;17.89;65.50;98429.00;2083679;28;19932;-48
2022/04/10 01:34:01;;;;;;;;;;;;;;;17.86;65.50;98419.50;2083420;28;19928;-48
2022/04/10 01:35:02;;;;;;;;;;;;;;;17.84;65.41;98426.09;2084432;28;19928;-50
2022/04/10 01:36:04;;;;;;;;;;;;;;;17.81;65.83;98423.81;2088214;28;20829;-48
2022/04/10 01:37:06;;;;;;;;;;;;;;;17.78;65.62;98434.94;2084623;28;19935;-49
2022/04/10 01:38:12;;;;;;;;;;;;;;;17.78;65.56;98430.41;2087015;28;19927;-49
2022/04/10 01:39:15;;;;;;;;;;;;;;;17.79;65.39;98444.66;2085276;28;20071;-48
2022/04/10 01:40:16;;;;;;;;;;;;;;;17.78;65.68;98437.63;2086944;28;19931;-48
2022/04/10 01:41:17;;;;;;;;;;;;;;;17.77;65.46;98442.13;2090325;28;19924;-48
2022/04/10 01:42:18;;;;;;;;;;;;;;;17.76;65.60;98451.22;2087374;28;20293;-48
2022/04/10 01:43:19;;;;;;;;;;;;;;;17.73;65.40;98442.75;2086941;28;20014;-49
2022/04/10 01:44:20;;;;;;;;;;;;;;;17.72;65.81;98449.13;2089455;28;20596;-52
2022/04/10 01:45:21;;;;;;;;;;;;;;;17.71;65.86;98442.13;2078808;28;21910;-49
2022/04/10 01:46:23;;;;;;;;;;;;;;;17.72;65.57;98449.13;2082433;28;19924;-50
2022/04/10 01:47:24;;;;;;;;;;;;;;;17.72;65.85;98446.44;2086081;28;19928;-48
2022/04/10 01:48:25;;;;;;;;;;;;;;;17.70;65.50;98449.34;2086227;28;19924;-49
2022/04/10 01:49:26;;;;;;;;;;;;;;;17.69;65.73;98454.91;2081628;28;19924;-50
2022/04/10 01:50:27;;;;;;;;;;;;;;;17.68;65.51;98454.06;2083147;28;20382;-49
2022/04/10 01:51:28;;;;;;;;;;;;;;;17.70;65.76;98461.94;2088812;28;19924;-52
2022/04/10 01:52:29;;;;;;;;;;;;;;;17.69;65.81;98450.38;2084338;28;20074;-48
2022/04/10 01:53:31;;;;;;;;;;;;;;;17.69;65.61;98460.25;2081454;28;19935;-49
2022/04/10 01:54:33;;;;;;;;;;;;;;;17.68;65.67;98453.25;2089194;28;20959;-51
2022/04/10 01:55:34;;;;;;;;;;;;;;;17.67;65.54;98456.97;2086272;28;20857;-48
2022/04/10 01:56:35;;;;;;;;;;;;;;;17.68;65.50;98455.94;2085885;28;19927;-54
2022/04/10 01:57:36;;;;;;;;;;;;;;;17.68;65.55;98464.81;2089451;28;19924;-50
2022/04/10 01:58:39;;;;;;;;;;;;;;;17.68;65.25;98464.00;2086992;28;19921;-49
2022/04/10 01:59:40;;;;;;;;;;;;;;;17.68;65.58;98464.81;2086590;28;19921;-50
2022/04/10 02:00:41;;;;;;;;;;;;;;;17.67;65.82;98460.47;2086348;28;19924;-48
2022/04/10 02:01:42;;;;;;;;;;;;;;;17.64;65.65;98461.72;2090484;28;19924;-50
2022/04/10 02:02:44;;;;;;;;;;;;;;;17.65;65.50;98466.03;2088224;28;20343;-51
2022/04/10 02:03:46;;;;;;;;;;;;;;;17.67;65.88;98467.72;2082756;28;19939;-50
2022/04/10 02:04:47;;;;;;;;;;;;;;;17.65;65.72;98468.72;2086119;28;20014;-49
2022/04/10 02:05:48;;;;;;;;;;;;;;;17.63;65.64;98465.44;2085904;28;19924;-48
2022/04/10 02:06:49;;;;;;;;;;;;;;;17.63;65.86;98465.44;2080281;28;20398;-50
2022/04/10 02:07:50;;;;;;;;;;;;;;;17.62;65.70;98463.75;2085085;28;20264;-49
2022/04/10 02:08:53;;;;;;;;;;;;;;;17.64;65.93;98464.41;2083073;28;20009;-51
2022/04/10 02:09:53;;;;;;;;;;;;;;;17.61;66.08;98458.63;2088147;28;20001;-49
2022/04/10 02:10:55;;;;;;;;;;;;;;;17.61;65.45;98464.81;2084926;28;19929;-51
2022/04/10 02:11:56;;;;;;;;;;;;;;;17.61;65.73;98461.28;2086394;28;20783;-50
2022/04/10 02:12:57;;;;;;;;;;;;;;;17.59;65.60;98466.84;2087241;28;19928;-50
2022/04/10 02:13:58;;;;;;;;;;;;;;;17.58;65.96;98461.69;2087942;28;19975;-48
2022/04/10 02:14:59;;;;;;;;;;;;;;;17.57;65.90;98468.91;2084646;28;19936;-48
2022/04/10 02:16:00;;;;;;;;;;;;;;;17.57;66.19;98468.06;2085465;28;19920;-49
2022/04/10 02:17:01;;;;;;;;;;;;;;;17.55;66.00;98470.97;2086427;28;20603;-50
2022/04/10 02:18:02;;;;;;;;;;;;;;;17.57;65.86;98474.25;2084720;28;19989;-49
2022/04/10 02:19:03;;;;;;;;;;;;;;;17.56;65.82;98472.63;2083265;28;19920;-49
2022/04/10 02:20:05;;;;;;;;;;;;;;;17.55;65.94;98468.28;2085831;28;19928;-49
2022/04/10 02:21:06;;;;;;;;;;;;;;;17.59;66.01;98476.75;2085710;28;19971;-51
2022/04/10 02:22:07;;;;;;;;;;;;;;;17.59;66.02;98474.06;2088781;28;19925;-51
2022/04/10 02:23:08;;;;;;;;;;;;;;;17.59;66.19;98482.94;2087880;28;19974;-48
2022/04/10 02:24:13;;;;;;;;;;;;;;;17.58;66.25;98492.03;2084431;28;19940;-52
2022/04/10 02:25:13;;;;;;;;;;;;;;;17.56;66.19;98496.75;2086374;28;19931;-50
2022/04/10 02:26:15;;;;;;;;;;;;;;;17.55;66.08;98494.25;2088862;28;19975;-50
2022/04/10 02:27:17;;;;;;;;;;;;;;;17.54;66.20;98506.84;2083683;28;20373;-51
2022/04/10 02:28:18;;;;;;;;;;;;;;;17.54;66.15;98497.97;2084556;28;19932;-48
2022/04/10 02:29:19;;;;;;;;;;;;;;;17.53;65.91;98502.50;2081274;28;20838;-49
2022/04/10 02:30:20;;;;;;;;;;;;;;;17.54;65.78;98506.03;2087509;28;19924;-48
2022/04/10 02:31:21;;;;;;;;;;;;;;;17.53;65.62;98502.50;2089828;28;19921;-51
2022/04/10 02:32:23;;;;;;;;;;;;;;;17.52;66.01;98508.06;2085215;28;19954;-51
2022/04/10 02:33:23;;;;;;;;;;;;;;;17.49;66.13;98503.94;2080710;28;20007;-48
2022/04/10 02:34:25;;;;;;;;;;;;;;;17.50;65.89;98505.59;2083936;28;20568;-49
2022/04/10 02:35:26;;;;;;;;;;;;;;;17.50;66.17;98505.59;2087185;28;19944;-49
2022/04/10 02:36:27;;;;;;;;;;;;;;;17.52;65.85;98508.06;2087923;28;19928;-51
2022/04/10 02:37:28;;;;;;;;;;;;;;;17.49;65.95;98514.66;2084686;28;20309;-49
2022/04/10 02:38:29;;;;;;;;;;;;;;;17.49;65.86;98509.28;2087216;28;19920;-51
2022/04/10 02:39:31;;;;;;;;;;;;;;;17.51;65.99;98517.16;2086001;28;20347;-49
2022/04/10 02:40:33;;;;;;;;;;;;;;;17.47;66.34;98522.09;2083786;28;19935;-53
2022/04/10 02:41:34;;;;;;;;;;;;;;;17.49;65.78;98517.34;2087025;28;20469;-50
2022/04/10 02:42:35;;;;;;;;;;;;;;;17.49;65.73;98517.34;2084045;28;19924;-53
2022/04/10 02:43:38;;;;;;;;;;;;;;;17.49;65.78;98516.50;2087932;28;20536;-49
2022/04/10 02:44:39;;;;;;;;;;;;;;;17.49;65.87;98520.00;2088100;28;19925;-55
2022/04/10 02:45:40;;;;;;;;;;;;;;;17.49;65.78;98521.88;2083865;28;19920;-50
2022/04/10 02:46:42;;;;;;;;;;;;;;;17.49;65.83;98520.00;2087315;28;19959;-55
2022/04/10 02:47:42;;;;;;;;;;;;;;;17.50;66.10;98521.69;2084019;28;19928;-52
2022/04/10 02:48:44;;;;;;;;;;;;;;;17.50;65.95;98524.38;2085697;28;19940;-56
2022/04/10 02:49:44;;;;;;;;;;;;;;;17.51;66.00;98523.34;2084334;28;19928;-50
2022/04/10 02:50:46;;;;;;;;;;;;;;;17.48;66.17;98529.09;2088748;28;19969;-52
2022/04/10 02:51:49;;;;;;;;;;;;;;;17.48;66.21;98518.38;2087467;28;19952;-50
2022/04/10 02:52:51;;;;;;;;;;;;;;;17.48;65.87;98521.06;2086299;28;20282;-54
2022/04/10 02:53:52;;;;;;;;;;;;;;;17.47;66.23;98534.63;2088643;28;20035;-51
2022/04/10 02:54:55;;;;;;;;;;;;;;;17.46;66.17;98531.13;2085717;28;20383;-51
2022/04/10 02:55:55;;;;;;;;;;;;;;;17.46;65.84;98536.50;2083534;28;19970;-50
2022/04/10 02:56:57;;;;;;;;;;;;;;;17.44;66.30;98530.53;2085932;28;19928;-55
2022/04/10 02:57:57;;;;;;;;;;;;;;;17.43;66.21;98534.22;2088531;28;20286;-47
2022/04/10 02:58:59;;;;;;;;;;;;;;;17.43;66.07;98536.91;2086083;28;19934;-52
2022/04/10 02:59:59;;;;;;;;;;;;;;;17.43;65.97;98540.41;2085551;28;19935;-52
2022/04/10 03:01:01;;;;;;;;;;;;;;;17.43;65.90;98548.44;2084710;28;20118;-53
2022/04/10 03:02:01;;;;;;;;;;;;;;;17.44;66.06;98549.31;2086549;28;19929;-51
2022/04/10 03:03:03;;;;;;;;;;;;;;;17.43;65.97;98553.00;2080961;28;20022;-55
2022/04/10 03:04:04;;;;;;;;;;;;;;;17.45;66.63;98552.81;2084632;28;20513;-47
2022/04/10 03:05:05;;;;;;;;;;;;;;;17.42;66.35;98562.88;2084544;28;19934;-53
2022/04/10 03:06:07;;;;;;;;;;;;;;;17.41;66.29;98561.25;2091037;28;20001;-52
2022/04/10 03:07:07;;;;;;;;;;;;;;;17.41;66.35;98563.06;2086518;28;19941;-50
2022/04/10 03:08:09;;;;;;;;;;;;;;;17.40;66.22;98564.13;2083520;28;20551;-48
2022/04/10 03:09:09;;;;;;;;;;;;;;;17.41;66.26;98577.34;2083143;28;20509;-51
2022/04/10 03:10:12;;;;;;;;;;;;;;;17.40;66.25;98562.25;2081864;28;19928;-51
2022/04/10 03:11:13;;;;;;;;;;;;;;;17.41;66.30;98576.47;2087748;28;19920;-51
2022/04/10 03:12:14;;;;;;;;;;;;;;;17.42;66.50;98580.84;2088177;28;19944;-55
2022/04/10 03:13:16;;;;;;;;;;;;;;;17.39;66.43;98581.22;2083930;28;19959;-52
2022/04/10 03:14:17;;;;;;;;;;;;;;;17.38;66.34;98572.38;2082363;28;19930;-52
2022/04/10 03:15:18;;;;;;;;;;;;;;;17.38;66.06;98576.88;2086982;28;19954;-52
2022/04/10 03:16:19;;;;;;;;;;;;;;;17.37;66.15;98589.47;2085742;28;20004;-52
2022/04/10 03:17:21;;;;;;;;;;;;;;;17.37;66.33;98583.28;2083448;28;19932;-52
2022/04/10 03:18:22;;;;;;;;;;;;;;;17.36;66.45;98589.66;2084649;28;19932;-53
2022/04/10 03:19:23;;;;;;;;;;;;;;;17.37;66.23;98591.31;2086625;28;19921;-52
2022/04/10 03:20:24;;;;;;;;;;;;;;;17.34;66.52;98592.53;2084702;28;19947;-52
2022/04/10 03:21:25;;;;;;;;;;;;;;;17.31;66.24;98595.63;2088247;28;19955;-53
2022/04/10 03:22:26;;;;;;;;;;;;;;;17.32;66.29;98593.75;2086012;28;19929;-54
2022/04/10 03:23:27;;;;;;;;;;;;;;;17.32;66.30;98599.13;2090769;28;19935;-52
2022/04/10 03:24:28;;;;;;;;;;;;;;;17.32;66.29;98605.31;2087464;28;19928;-51
2022/04/10 03:25:30;;;;;;;;;;;;;;;17.33;66.11;98604.28;2087196;28;19925;-50
2022/04/10 03:26:32;;;;;;;;;;;;;;;17.32;66.13;98612.53;2090848;28;20278;-51
2022/04/10 03:27:32;;;;;;;;;;;;;;;17.30;66.28;98609.19;2087311;28;20012;-51
2022/04/10 03:28:34;;;;;;;;;;;;;;;17.29;66.06;98611.06;2090160;28;19946;-51
2022/04/10 03:29:34;;;;;;;;;;;;;;;17.29;66.38;98615.59;2084924;28;19962;-55
2022/04/10 03:30:36;;;;;;;;;;;;;;;17.30;66.18;98611.88;2085700;28;19930;-52
2022/04/10 03:31:36;;;;;;;;;;;;;;;17.29;65.96;98618.28;2091068;28;20552;-52
2022/04/10 03:32:38;;;;;;;;;;;;;;;17.29;66.25;98615.59;2086993;28;19927;-53
2022/04/10 03:33:38;;;;;;;;;;;;;;;17.27;66.27;98614.94;2087136;28;19920;-52
2022/04/10 03:34:40;;;;;;;;;;;;;;;17.27;65.95;98623.00;2083720;28;20103;-51
2022/04/10 03:35:41;;;;;;;;;;;;;;;17.26;66.13;98621.34;2088808;28;19925;-50
2022/04/10 03:36:43;;;;;;;;;;;;;;;17.27;66.25;98626.50;2090154;28;19920;-49
2022/04/10 03:37:44;;;;;;;;;;;;;;;17.26;66.04;98624.84;2088461;28;19924;-49
2022/04/10 03:38:45;;;;;;;;;;;;;;;17.26;65.92;98626.72;2080544;28;19932;-52
2022/04/10 03:39:46;;;;;;;;;;;;;;;17.23;66.25;98638.66;2084839;28;21320;-54
2022/04/10 03:40:48;;;;;;;;;;;;;;;17.24;65.81;98628.75;2086266;28;19932;-51
2022/04/10 03:41:50;;;;;;;;;;;;;;;17.25;66.05;98630.44;2087131;28;19920;-52
2022/04/10 03:42:50;;;;;;;;;;;;;;;17.23;66.48;98635.97;2086254;28;19966;-51
2022/04/10 03:43:52;;;;;;;;;;;;;;;17.20;66.12;98633.69;2087946;28;19958;-53
2022/04/10 03:44:52;;;;;;;;;;;;;;;17.22;65.79;98639.69;2090978;28;19975;-53
2022/04/10 03:45:54;;;;;;;;;;;;;;;17.22;66.09;98637.00;2086418;28;20318;-51
2022/04/10 03:46:55;;;;;;;;;;;;;;;17.23;65.91;98643.19;2089606;28;20760;-52
2022/04/10 03:47:56;;;;;;;;;;;;;;;17.21;66.16;98640.69;2085129;28;19921;-51
2022/04/10 03:48:57;;;;;;;;;;;;;;;17.20;65.79;98642.53;2085252;28;20576;-50
2022/04/10 03:49:58;;;;;;;;;;;;;;;17.20;66.01;98644.41;2084923;28;19943;-52
2022/04/10 03:50:59;;;;;;;;;;;;;;;17.20;66.28;98639.88;2088837;28;19924;-50
2022/04/10 03:52:00;;;;;;;;;;;;;;;17.20;66.04;98639.03;2091359;28;19925;-54
2022/04/10 03:53:01;;;;;;;;;;;;;;;17.21;66.02;98648.72;2085271;28;19939;-52
2022/04/10 03:54:02;;;;;;;;;;;;;;;17.18;66.36;98647.25;2086533;28;19951;-51
2022/04/10 03:55:03;;;;;;;;;;;;;;;17.19;65.93;98650.78;2090185;28;19977;-50
2022/04/10 03:56:07;;;;;;;;;;;;;;;17.18;66.10;98651.78;2093310;28;19927;-52
2022/04/10 03:57:07;;;;;;;;;;;;;;;17.17;66.24;98648.28;2086336;28;19921;-50
2022/04/10 03:58:09;;;;;;;;;;;;;;;17.16;66.47;98652.00;2090215;28;20260;-55
2022/04/10 03:59:09;;;;;;;;;;;;;;;17.17;66.05;98655.50;2086356;28;19925;-53
2022/04/10 04:00:12;;;;;;;;;;;;;;;17.15;66.36;98653.00;2088413;28;20420;-52
2022/04/10 04:01:13;;;;;;;;;;;;;;;17.15;66.40;98657.53;2091001;28;19978;-53
2022/04/10 04:02:15;;;;;;;;;;;;;;;17.15;66.40;98649.50;2082756;28;19920;-52
2022/04/10 04:03:16;;;;;;;;;;;;;;;17.14;66.50;98656.72;2089247;28;19931;-55
2022/04/10 04:04:18;;;;;;;;;;;;;;;17.15;66.56;98655.69;2085868;28;19927;-50
2022/04/10 04:05:18;;;;;;;;;;;;;;;17.15;66.72;98654.88;2087764;28;19970;-55
2022/04/10 04:06:20;;;;;;;;;;;;;;;17.17;66.58;98661.69;2088542;28;19921;-52
2022/04/10 04:07:20;;;;;;;;;;;;;;;17.19;66.70;98665.03;2085763;28;19920;-53
2022/04/10 04:08:22;;;;;;;;;;;;;;;17.22;66.33;98660.28;2088841;28;20301;-53
2022/04/10 04:09:22;;;;;;;;;;;;;;;17.26;66.76;98658.88;2087552;28;19970;-54
2022/04/10 04:10:24;;;;;;;;;;;;;;;17.31;66.52;98661.81;2088304;28;19982;-54
2022/04/10 04:11:26;;;;;;;;;;;;;;;17.39;66.43;98669.72;2082363;28;20568;-54
2022/04/10 04:12:27;;;;;;;;;;;;;;;17.44;66.47;98664.59;2086701;28;19921;-49
2022/04/10 04:13:28;;;;;;;;;;;;;;;17.49;66.50;98664.81;2089745;28;20338;-51
2022/04/10 04:14:29;;;;;;;;;;;;;;;17.53;66.40;98665.28;2089543;28;19932;-50
2022/04/10 04:15:30;;;;;;;;;;;;;;;17.58;66.56;98668.19;2087018;28;19924;-51
2022/04/10 04:16:33;;;;;;;;;;;;;;;17.61;66.14;98670.50;2089614;28;19927;-52
2022/04/10 04:17:33;;;;;;;;;;;;;;;17.61;66.11;98676.69;2086330;28;19924;-54
2022/04/10 04:18:35;;;;;;;;;;;;;;;17.64;66.14;98675.47;2087315;28;19925;-51
2022/04/10 04:19:36;;;;;;;;;;;;;;;17.71;65.85;98675.50;2083474;28;19935;-54
2022/04/10 04:20:37;;;;;;;;;;;;;;;17.73;66.01;98676.94;2087680;28;19920;-54
2022/04/10 04:21:38;;;;;;;;;;;;;;;17.77;65.94;98686.25;2088285;28;19924;-54
2022/04/10 04:22:39;;;;;;;;;;;;;;;17.82;65.71;98685.69;2085386;28;19921;-52
2022/04/10 04:23:41;;;;;;;;;;;;;;;17.82;65.37;98678.47;2088225;28;20389;-53
2022/04/10 04:24:42;;;;;;;;;;;;;;;17.83;65.75;98682.00;2088318;28;20019;-53
2022/04/10 04:25:44;;;;;;;;;;;;;;;17.85;65.50;98679.94;2085357;28;20678;-53
2022/04/10 04:26:46;;;;;;;;;;;;;;;17.87;66.08;98688.63;2087909;28;20073;-51
2022/04/10 04:27:47;;;;;;;;;;;;;;;17.90;65.83;98680.19;2086681;28;19928;-48
2022/04/10 04:28:48;;;;;;;;;;;;;;;17.93;65.85;98687.00;2085895;28;19981;-53
2022/04/10 04:29:49;;;;;;;;;;;;;;;17.93;66.12;98689.69;2080665;28;19928;-54
2022/04/10 04:30:49;;;;;;;;;;;;;;;17.96;65.46;98686.59;2088115;28;19920;-49
2022/04/10 04:31:51;;;;;;;;;;;;;;;17.99;65.74;98681.66;2090646;28;20340;-47
2022/04/10 04:32:51;;;;;;;;;;;;;;;18.00;65.80;98691.38;2082012;28;19973;-50
2022/04/10 04:33:53;;;;;;;;;;;;;;;18.02;65.37;98697.38;2084479;28;19985;-50
2022/04/10 04:34:53;;;;;;;;;;;;;;;18.04;66.10;98689.94;2085973;28;19924;-50
2022/04/10 04:35:55;;;;;;;;;;;;;;;18.04;65.53;98691.81;2092324;28;20015;-48
2022/04/10 04:36:56;;;;;;;;;;;;;;;18.05;65.95;98690.78;2089372;28;20003;-49
2022/04/10 04:37:57;;;;;;;;;;;;;;;18.07;65.79;98692.25;2085275;28;19935;-50
2022/04/10 04:38:58;;;;;;;;;;;;;;;18.09;65.62;98681.31;2089150;28;19928;-51
2022/04/10 04:39:59;;;;;;;;;;;;;;;18.12;65.88;98693.50;2088446;28;19928;-51
2022/04/10 04:41:00;;;;;;;;;;;;;;;18.12;65.66;98690.84;2085786;28;20685;-50
2022/04/10 04:42:03;;;;;;;;;;;;;;;18.14;65.83;98688.78;2090401;28;19920;-46
2022/04/10 04:43:05;;;;;;;;;;;;;;;18.14;65.41;98688.78;2090098;28;19960;-49
2022/04/10 04:44:05;;;;;;;;;;;;;;;18.14;65.33;98686.91;2090990;28;19921;-50
2022/04/10 04:45:07;;;;;;;;;;;;;;;18.16;65.75;98686.72;2083797;28;19948;-50
2022/04/10 04:46:08;;;;;;;;;;;;;;;18.16;65.41;98687.53;2085515;28;19921;-49
2022/04/10 04:47:09;;;;;;;;;;;;;;;18.17;65.29;98686.53;2087847;28;20157;-48
2022/04/10 04:48:10;;;;;;;;;;;;;;;18.17;65.42;98691.06;2088279;28;19925;-50
2022/04/10 04:49:11;;;;;;;;;;;;;;;18.18;65.43;98693.53;2076518;28;19928;-50
2022/04/10 04:50:12;;;;;;;;;;;;;;;18.20;65.44;98690.66;2083961;28;19921;-49
2022/04/10 04:51:14;;;;;;;;;;;;;;;18.20;65.55;98687.97;2088996;28;19924;-50
2022/04/10 04:52:16;;;;;;;;;;;;;;;18.22;65.37;98691.28;2088891;28;20015;-51
2022/04/10 04:53:17;;;;;;;;;;;;;;;18.22;65.39;98693.94;2088049;28;19928;-51
2022/04/10 04:54:18;;;;;;;;;;;;;;;18.23;65.34;98695.63;2087853;28;19920;-49
2022/04/10 04:55:19;;;;;;;;;;;;;;;18.24;65.36;98705.34;2086120;28;19925;-48
2022/04/10 04:56:20;;;;;;;;;;;;;;;18.22;65.46;98696.63;2085609;28;19920;-49
2022/04/10 04:57:23;;;;;;;;;;;;;;;18.22;65.60;98699.31;2090588;28;20415;-50
2022/04/10 04:58:23;;;;;;;;;;;;;;;18.24;65.84;98700.78;2086396;28;20004;-50
2022/04/10 04:59:25;;;;;;;;;;;;;;;18.26;65.49;98705.97;2085747;28;19928;-50
2022/04/10 05:00:25;;;;;;;;;;;;;;;18.25;65.37;98707.84;2087938;28;20409;-51
2022/04/10 05:01:27;;;;;;;;;;;;;;;18.24;65.51;98706.16;2089296;28;19924;-49
2022/04/10 05:02:27;;;;;;;;;;;;;;;18.25;65.22;98707.84;2086415;28;20430;-50
2022/04/10 05:03:29;;;;;;;;;;;;;;;18.26;65.24;98708.66;2082477;28;20030;-50
2022/04/10 05:04:29;;;;;;;;;;;;;;;18.26;65.21;98709.47;2082067;28;19924;-46
2022/04/10 05:05:31;;;;;;;;;;;;;;;18.25;65.46;98707.00;2087282;28;19948;-50
2022/04/10 05:06:31;;;;;;;;;;;;;;;18.26;65.14;98714.03;2086320;28;20009;-49
2022/04/10 05:07:33;;;;;;;;;;;;;;;18.25;65.40;98718.56;2086742;28;19928;-50
2022/04/10 05:08:34;;;;;;;;;;;;;;;18.27;65.25;98715.66;2082847;28;20424;-49
2022/04/10 05:09:35;;;;;;;;;;;;;;;18.27;65.21;98721.03;2088689;28;19931;-50
2022/04/10 05:10:36;;;;;;;;;;;;;;;18.27;65.27;98727.22;2089138;28;19993;-51
2022/04/10 05:11:37;;;;;;;;;;;;;;;18.27;65.16;98724.53;2087316;28;19924;-51
2022/04/10 05:12:39;;;;;;;;;;;;;;;18.27;65.35;98721.03;2089381;28;20000;-47
2022/04/10 05:13:41;;;;;;;;;;;;;;;18.27;65.10;98731.78;2091495;28;19927;-52
2022/04/10 05:14:41;;;;;;;;;;;;;;;18.26;65.14;98728.28;2087673;28;19925;-53
2022/04/10 05:15:43;;;;;;;;;;;;;;;18.27;65.42;98732.59;2085545;28;20397;-51
2022/04/10 05:16:43;;;;;;;;;;;;;;;18.26;65.21;98730.13;2087072;28;20015;-49
2022/04/10 05:17:45;;;;;;;;;;;;;;;18.26;65.32;98732.81;2082178;28;19921;-51
2022/04/10 05:18:47;;;;;;;;;;;;;;;18.27;65.26;98737.16;2086843;28;19928;-48
2022/04/10 05:19:48;;;;;;;;;;;;;;;18.27;65.26;98734.47;2089737;28;20280;-50
2022/04/10 05:20:50;;;;;;;;;;;;;;;18.25;65.00;98732.00;2088170;28;20018;-48
2022/04/10 05:21:50;;;;;;;;;;;;;;;18.26;65.24;98746.25;2088418;28;20447;-49